Terminal Aerodrome Forecast
Issued by NWS Chicago, IL

Home | Current Version | Previous Version | Graphics & Text | Print | Product List | Glossary On
Versions: 1 2 3 4 5 6 7 8 9 10 11 12 13 14 15 16 17 18 19 20 21 22 23 24 25 26 27 28
000
FTUS43 KLOT 230538
TAFRFD
TAF
KRFD 230538Z 2306/2406 28008KT 6SM -RA BR SCT015 OVC025
     FM230700 29013G20KT 3SM -SN SCT008 OVC015
      TEMPO 2307/2311 1SM -SN SCT004 OVC008
     FM231100 33015G22KT 6SM -SHSN OVC015
     FM232200 31012KT P6SM BKN030=

USA.gov is the U.S. government's official web portal to all federal, state and local government web resources and services.